.
WxDataArchive / Data Records for 2007-10-05
2007-10-04 October 2007 2007-10-06

Data Records for Friday, 05 October 2007

Time	Temp	Chill	HIndex	Humid	Dewpt	 Wind 	HiWind	WindDir	Rain 	Barom 
-----	----	-----	------	-----	-----	------	------	-------	-----	----- 
00:00	63.7	63.7	63.7	93	61.6	0	0	---	0.00	30.061 
00:05	63.5	63.5	63.5	93	61.4	0	0	---	0.00	30.060 
00:10	63.5	63.5	63.5	93	61.4	0	1	135	0.00	30.059 
00:15	63.4	63.4	63.4	93	61.3	0	0	---	0.00	30.057 
00:20	63.4	63.4	63.4	93	61.3	0	0	---	0.00	30.059 
00:25	63.2	63.2	63.2	93	61.1	0	0	---	0.00	30.057 
00:30	63.1	63.1	63.1	93	61.0	0	0	---	0.00	30.058 
00:35	63.1	63.1	63.1	94	61.3	0	0	---	0.00	30.056 
00:40	62.9	62.9	62.9	94	61.1	0	0	---	0.00	30.059 
00:45	62.9	62.9	62.9	94	61.1	0	0	---	0.00	30.059 
00:50	62.7	62.7	62.7	94	60.9	0	0	---	0.00	30.059 
00:55	62.6	62.6	62.6	94	60.8	0	0	---	0.00	30.060 
01:00	62.4	62.4	62.4	94	60.6	0	0	---	0.00	30.062 
01:05	62.4	62.4	62.4	94	60.6	0	0	---	0.00	30.064 
01:10	62.3	62.3	62.3	94	60.5	0	0	---	0.00	30.066 
01:15	62.1	62.1	62.1	94	60.3	0	0	---	0.00	30.066 
01:20	62.1	62.1	62.1	95	60.6	0	0	---	0.00	30.066 
01:25	62.1	62.1	62.1	95	60.6	0	0	---	0.00	30.066 
01:30	62.1	62.1	62.1	95	60.6	0	0	---	0.00	30.067 
01:35	62.0	62.0	62.0	95	60.5	0	0	---	0.00	30.067 
01:40	61.8	61.8	61.8	95	60.3	0	0	---	0.00	30.069 
01:45	61.8	61.8	61.8	95	60.3	0	0	---	0.00	30.069 
01:50	61.8	61.8	61.8	95	60.3	0	0	---	0.00	30.069 
01:55	61.6	61.6	61.6	95	60.2	0	0	---	0.00	30.069 
02:00	61.6	61.6	61.6	95	60.2	0	0	---	0.00	30.069 
02:05	61.5	61.5	61.5	95	60.1	0	0	---	0.00	30.069 
02:10	61.5	61.5	61.5	95	60.1	0	0	---	0.00	30.070 
02:15	61.5	61.5	61.5	95	60.1	0	0	---	0.00	30.070 
02:20	61.5	61.5	61.5	96	60.3	0	0	---	0.00	30.071 
02:25	61.3	61.3	61.3	96	60.1	0	0	---	0.00	30.069 
02:30	61.3	61.3	61.3	96	60.1	0	0	---	0.00	30.069 
02:35	61.2	61.2	61.2	96	60.0	0	0	---	0.00	30.069 
02:40	61.2	61.2	61.2	96	60.0	0	0	---	0.00	30.068 
02:45	61.2	61.2	61.2	96	60.0	0	0	---	0.00	30.069 
02:50	61.2	61.2	61.2	96	60.0	0	0	---	0.00	30.068 
02:55	61.2	61.2	61.2	96	60.0	0	0	---	0.00	30.067 
03:00	61.2	61.2	61.2	96	60.0	0	0	---	0.00	30.067 
03:05	61.0	61.0	61.0	96	59.8	0	0	---	0.00	30.067 
03:10	61.0	61.0	61.0	96	59.8	0	0	---	0.00	30.068 
03:15	61.0	61.0	61.0	96	59.8	0	0	---	0.00	30.069 
03:20	60.9	60.9	60.9	96	59.7	0	0	---	0.00	30.069 
03:25	60.7	60.7	60.7	96	59.6	0	0	---	0.00	30.068 
03:30	60.7	60.7	60.7	96	59.6	0	0	---	0.00	30.069 
03:35	60.7	60.7	60.7	96	59.6	0	0	---	0.00	30.069 
03:40	60.7	60.7	60.7	96	59.6	0	0	---	0.00	30.069 
03:45	60.5	60.5	60.5	96	59.4	0	0	---	0.00	30.071 
03:50	60.5	60.5	60.5	96	59.4	0	0	---	0.00	30.072 
03:55	60.5	60.5	60.5	96	59.4	0	0	---	0.00	30.071 
04:00	60.5	60.5	60.5	96	59.4	0	0	---	0.00	30.073 
04:05	60.4	60.4	60.4	96	59.3	0	0	---	0.00	30.076 
04:10	60.4	60.4	60.4	96	59.3	0	0	---	0.00	30.079 
04:15	60.4	60.4	60.4	96	59.3	0	0	---	0.00	30.082 
04:20	60.4	60.4	60.4	96	59.3	0	0	---	0.00	30.083 
04:25	60.4	60.4	60.4	96	59.3	0	0	---	0.00	30.082 
04:30	60.2	60.2	60.2	96	59.1	0	0	---	0.00	30.082 
04:35	60.2	60.2	60.2	96	59.1	0	0	---	0.00	30.085 
04:40	60.4	60.4	60.4	96	59.3	0	0	---	0.00	30.086 
04:45	60.4	60.4	60.4	96	59.3	0	0	---	0.00	30.089 
04:50	60.4	60.4	60.4	96	59.3	0	0	---	0.00	30.092 
04:55	60.4	60.4	60.4	96	59.3	0	0	---	0.00	30.091 
05:00	60.5	60.5	60.5	97	59.6	0	0	---	0.00	30.092 
05:05	60.9	60.9	60.9	97	60.0	0	1	135	0.00	30.096 
05:10	61.2	61.2	61.2	97	60.3	0	2	135	0.00	30.097 
05:15	61.2	61.2	61.2	97	60.3	0	1	135	0.00	30.099 
05:20	61.2	61.2	61.2	96	60.0	0	1	135	0.00	30.100 
05:25	61.2	61.2	61.2	96	60.0	0	0	---	0.00	30.101 
05:30	61.0	61.0	61.0	96	59.8	0	0	---	0.00	30.100 
05:35	61.0	61.0	61.0	96	59.8	0	1	135	0.00	30.101 
05:40	61.0	61.0	61.0	96	59.8	0	1	135	0.00	30.101 
05:45	60.9	60.9	60.9	96	59.7	0	0	---	0.00	30.102 
05:50	60.9	60.9	60.9	96	59.7	0	1	135	0.00	30.102 
05:55	60.9	60.9	60.9	96	59.7	0	1	135	0.00	30.102 
06:00	60.9	60.9	60.9	96	59.7	0	0	---	0.00	30.103 
06:05	60.7	60.7	60.7	96	59.6	0	0	---	0.00	30.110 
06:10	60.7	60.7	60.7	96	59.6	0	0	---	0.00	30.112 
06:15	60.7	60.7	60.7	96	59.6	0	1	135	0.00	30.113 
06:20	60.7	60.7	60.7	96	59.6	0	1	135	0.00	30.112 
06:25	60.9	60.9	60.9	96	59.7	0	1	135	0.00	30.111 
06:30	60.9	60.9	60.9	96	59.7	0	1	135	0.00	30.112 
06:35	60.7	60.7	60.7	96	59.6	0	0	---	0.00	30.113 
06:40	60.7	60.7	60.7	96	59.6	0	0	---	0.00	30.117 
06:45	60.7	60.7	60.7	96	59.6	0	0	---	0.00	30.118 
06:50	60.5	60.5	60.5	96	59.4	0	0	---	0.00	30.122 
06:55	60.5	60.5	60.5	96	59.4	0	0	---	0.00	30.124 
07:00	60.5	60.5	60.5	96	59.4	0	0	---	0.00	30.124 
07:05	60.9	60.9	60.9	96	59.7	0	1	135	0.00	30.127 
07:10	61.2	61.2	61.2	96	60.0	0	0	---	0.00	30.127 
07:15	61.3	61.3	61.3	96	60.1	0	1	135	0.00	30.127 
07:20	61.6	61.6	61.6	96	60.4	0	1	135	0.00	30.128 
07:25	62.0	62.0	62.0	96	60.8	0	2	135	0.00	30.129 
07:30	62.3	62.3	62.3	96	61.1	0	2	135	0.00	30.132 
07:35	62.4	62.4	62.4	96	61.2	0	1	135	0.00	30.134 
07:40	62.7	62.7	62.7	95	61.2	0	1	135	0.00	30.135 
07:45	62.9	62.9	62.9	94	61.1	0	2	135	0.00	30.137 
07:50	63.1	63.1	63.1	94	61.3	0	1	135	0.00	30.136 
07:55	63.2	63.2	63.2	93	61.1	0	3	135	0.00	30.137 
08:00	63.4	63.4	63.4	92	61.0	1	4	112	0.00	30.138 
08:05	63.7	63.7	63.7	92	61.3	0	2	112	0.00	30.141 
08:10	63.9	63.9	63.9	92	61.5	0	2	112	0.00	30.142 
08:15	64.3	64.3	64.3	92	61.9	1	2	112	0.00	30.141 
08:20	64.7	64.7	64.7	91	62.0	1	2	112	0.00	30.140 
08:25	65.0	65.0	65.0	90	62.0	1	2	112	0.00	30.141 
08:30	65.2	65.2	65.2	89	61.9	0	2	112	0.00	30.144 
08:35	65.5	65.5	65.5	89	62.2	0	0	---	0.00	30.148 
08:40	66.0	66.0	66.0	89	62.7	0	1	112	0.00	30.144 
08:45	66.3	66.3	66.3	88	62.6	0	1	112	0.00	30.143 
08:50	66.9	66.9	66.9	87	62.9	0	1	112	0.00	30.142 
08:55	67.6	67.6	67.6	85	62.9	0	1	112	0.00	30.141 
09:00	68.4	68.4	68.4	84	63.4	0	1	112	0.00	30.140 
09:05	69.4	69.4	69.4	81	63.3	1	3	112	0.00	30.141 
09:10	70.4	70.4	70.4	78	63.2	1	2	112	0.00	30.138 
09:15	71.3	71.3	71.3	78	64.1	0	2	112	0.00	30.138 
09:20	72.3	72.3	72.3	75	63.9	1	3	112	0.00	30.137 
09:25	73.2	73.2	73.2	74	64.4	1	2	112	0.00	30.136 
09:30	74.0	74.0	74.0	71	64.0	0	2	112	0.00	30.136 
09:35	74.9	74.9	74.9	70	64.4	0	2	112	0.00	30.135 
09:40	75.6	75.6	77.4	68	64.3	1	2	112	0.00	30.133 
09:45	76.3	76.3	78.1	67	64.5	1	2	112	0.00	30.132 
09:50	76.8	76.8	78.6	66	64.6	1	2	112	0.00	30.132 
09:55	77.4	77.4	79.2	65	64.7	1	3	112	0.00	30.132 
10:00	77.7	77.7	79.5	64	64.5	0	2	158	0.00	30.129 
10:05	78.3	78.3	80.2	64	65.1	0	2	158	0.00	30.130 
10:10	78.8	78.8	80.6	62	64.7	1	2	158	0.00	30.129 
10:15	79.2	79.2	81.1	63	65.5	0	2	158	0.00	30.130 
10:20	79.6	79.6	81.5	62	65.4	1	3	135	0.00	30.130 
10:25	79.9	79.9	81.8	61	65.2	1	2	0	0.00	30.129 
10:30	80.5	80.5	82.4	60	65.3	0	2	0	0.00	30.128 
10:35	81.2	81.2	83.2	59	65.5	0	2	0	0.00	30.128 
10:40	81.4	81.4	83.3	58	65.2	0	2	0	0.00	30.126 
10:45	81.4	81.4	83.6	60	66.2	0	1	0	0.00	30.125 
10:50	81.6	81.6	83.7	59	65.9	0	2	338	0.00	30.125 
10:55	81.8	81.8	83.6	57	65.0	0	2	315	0.00	30.123 
11:00	82.0	82.0	83.9	57	65.2	0	2	315	0.00	30.122 
11:05	82.6	82.6	84.7	57	65.8	0	2	292	0.00	30.120 
11:10	83.2	83.2	84.9	54	64.8	1	4	68	0.00	30.116 
11:15	83.8	83.8	85.7	54	65.3	1	3	68	0.00	30.118 
11:20	83.6	83.6	84.8	51	63.5	1	2	0	0.00	30.118 
11:25	84.1	84.1	85.9	53	65.1	1	3	0	0.00	30.115 
11:30	84.3	84.3	86.5	54	65.8	1	5	90	0.00	30.114 
11:35	84.7	84.7	86.8	53	65.6	0	2	90	0.00	30.113 
11:40	85.1	85.1	86.9	51	64.9	0	3	90	0.00	30.111 
11:45	85.5	85.5	87.2	50	64.7	1	5	90	0.00	30.109 
11:50	85.7	85.7	87.4	50	64.9	2	5	90	0.00	30.109 
11:55	85.9	85.9	87.5	49	64.5	0	3	112	0.00	30.108 
12:00	85.7	85.7	86.9	48	63.7	2	5	90	0.00	30.107 
12:05	85.5	85.5	87.4	51	65.3	1	3	90	0.00	30.105 
12:10	85.5	85.5	87.2	50	64.7	1	3	90	0.00	30.105 
12:15	85.7	85.7	86.9	48	63.7	0	2	90	0.00	30.100 
12:20	85.9	85.9	87.5	49	64.5	1	2	90	0.00	30.097 
12:25	85.5	85.5	86.6	48	63.5	0	3	90	0.00	30.096 
12:30	85.3	85.3	86.9	50	64.5	0	2	90	0.00	30.096 
12:35	85.1	85.1	86.6	50	64.3	1	2	90	0.00	30.098 
12:40	85.1	85.1	86.4	49	63.8	1	2	90	0.00	30.095 
12:45	85.7	85.7	86.7	47	63.1	0	2	90	0.00	30.091 
12:50	85.9	85.9	87.2	48	63.9	0	2	90	0.00	30.087 
12:55	85.7	85.7	86.4	46	62.5	1	4	90	0.00	30.084 
13:00	85.9	85.9	86.9	47	63.3	1	3	270	0.00	30.084 
13:05	86.5	86.5	87.8	47	63.8	0	2	270	0.00	30.081 
13:10	87.2	87.2	87.6	43	61.9	1	4	112	0.00	30.080 
13:15	87.0	87.0	87.6	44	62.4	2	4	90	0.00	30.075 
13:20	87.2	87.2	87.6	43	61.9	1	4	90	0.00	30.070 
13:25	87.4	87.4	88.2	44	62.8	1	3	90	0.00	30.068 
13:30	87.8	87.8	88.5	43	62.5	1	3	270	0.00	30.065 
13:35	88.0	88.0	88.7	43	62.7	1	4	248	0.00	30.065 
13:40	88.0	88.0	88.7	43	62.7	1	4	338	0.00	30.065 
13:45	88.0	88.0	88.5	42	62.0	1	3	270	0.00	30.064 
13:50	88.2	88.2	89.0	43	62.8	1	3	270	0.00	30.062 
13:55	88.0	88.0	88.2	41	61.3	0	2	270	0.00	30.061 
14:00	88.0	88.0	88.7	43	62.7	1	4	270	0.00	30.057 
14:05	88.0	88.0	88.5	42	62.0	1	2	158	0.00	30.058 
14:10	88.2	88.2	89.0	43	62.8	0	2	158	0.00	30.056 
14:15	88.2	88.2	89.0	43	62.8	1	3	90	0.00	30.055 
14:20	87.8	87.8	88.5	43	62.5	1	3	270	0.00	30.055 
14:25	88.0	88.0	89.0	44	63.3	1	3	270	0.00	30.052 
14:30	88.2	88.2	88.7	42	62.2	1	2	270	0.00	30.051 
14:35	88.0	88.0	89.0	44	63.3	0	2	270	0.00	30.050 
14:40	88.2	88.2	89.0	43	62.8	1	2	270	0.00	30.050 
14:45	88.2	88.2	89.0	43	62.8	1	3	270	0.00	30.049 
14:50	88.0	88.0	89.0	44	63.3	0	2	270	0.00	30.049 
14:55	88.2	88.2	89.0	43	62.8	1	3	270	0.00	30.048 
15:00	88.2	88.2	89.3	44	63.5	0	2	270	0.00	30.048 
15:05	87.8	87.8	88.8	44	63.1	1	3	270	0.00	30.048 
15:10	87.2	87.2	88.5	46	63.9	1	3	270	0.00	30.047 
15:15	87.2	87.2	88.2	45	63.2	1	3	270	0.00	30.048 
15:20	87.4	87.4	88.5	45	63.4	0	1	270	0.00	30.046 
15:25	87.6	87.6	89.1	46	64.2	0	2	270	0.00	30.042 
15:30	87.6	87.6	89.1	46	64.2	0	2	270	0.00	30.037 
15:35	87.6	87.6	88.8	45	63.6	1	3	270	0.00	30.037 
15:40	87.6	87.6	89.1	46	64.2	0	2	270	0.00	30.036 
15:45	87.6	87.6	88.2	43	62.3	0	1	270	0.00	30.035 
15:50	87.4	87.4	88.8	46	64.0	0	2	270	0.00	30.036 
15:55	87.2	87.2	88.5	46	63.9	0	2	270	0.00	30.035 
16:00	87.0	87.0	88.2	46	63.7	1	3	22	0.00	30.035 
16:05	86.7	86.7	87.8	46	63.4	1	3	90	0.00	30.035 
16:10	86.7	86.7	88.1	47	64.0	0	1	90	0.00	30.035 
16:15	86.7	86.7	88.1	47	64.0	0	2	90	0.00	30.034 
16:20	86.7	86.7	88.1	47	64.0	0	2	90	0.00	30.034 
16:25	86.5	86.5	87.5	46	63.2	0	2	90	0.00	30.034 
16:30	86.5	86.5	87.5	46	63.2	1	3	248	0.00	30.035 
16:35	86.5	86.5	88.1	48	64.4	0	1	248	0.00	30.036 
16:40	86.3	86.3	87.5	47	63.7	0	1	248	0.00	30.038 
16:45	85.9	85.9	86.9	47	63.3	0	1	248	0.00	30.039 
16:50	85.7	85.7	86.9	48	63.7	0	1	248	0.00	30.039 
16:55	85.5	85.5	86.9	49	64.1	0	1	248	0.00	30.038 
17:00	85.1	85.1	86.4	49	63.8	0	1	248	0.00	30.039 
17:05	84.9	84.9	86.3	50	64.2	0	0	---	0.00	30.039 
17:10	84.5	84.5	86.0	51	64.4	0	0	---	0.00	30.039 
17:15	84.0	84.0	85.6	52	64.4	0	0	---	0.00	30.040 
17:20	83.4	83.4	85.0	53	64.4	0	0	---	0.00	30.039 
17:25	83.0	83.0	85.1	56	65.7	0	0	---	0.00	30.037 
17:30	82.6	82.6	84.7	57	65.8	0	0	---	0.00	30.038 
17:35	82.2	82.2	84.3	58	65.9	0	0	---	0.00	30.039 
17:40	81.8	81.8	83.8	58	65.6	0	0	---	0.00	30.039 
17:45	81.4	81.4	83.6	60	66.2	0	0	---	0.00	30.039 
17:50	81.1	81.1	83.3	61	66.4	0	0	---	0.00	30.040 
17:55	80.9	80.9	83.2	62	66.6	0	0	---	0.00	30.040 
18:00	80.5	80.5	82.7	62	66.3	0	0	---	0.00	30.038 
18:05	80.1	80.1	82.4	64	66.8	0	0	---	0.00	30.040 
18:10	79.8	79.8	82.1	65	67.0	0	0	---	0.00	30.040 
18:15	79.4	79.4	81.6	66	67.0	0	0	---	0.00	30.041 
18:20	79.0	79.0	81.2	67	67.1	0	0	---	0.00	30.042 
18:25	78.6	78.6	80.7	67	66.7	0	0	---	0.00	30.040 
18:30	78.3	78.3	80.3	68	66.8	0	0	---	0.00	30.042 
18:35	77.7	77.7	79.6	68	66.3	0	0	---	0.00	30.043 
18:40	77.4	77.4	79.2	68	66.0	0	0	---	0.00	30.045 
18:45	77.0	77.0	78.8	69	66.0	0	0	---	0.00	30.048 
18:50	76.7	76.7	78.4	70	66.2	0	0	---	0.00	30.049 
18:55	76.3	76.3	77.9	71	66.2	0	0	---	0.00	30.053 
19:00	76.0	76.0	77.5	72	66.3	0	0	---	0.00	30.054 
19:05	75.8	75.8	77.3	72	66.1	0	0	---	0.00	30.052 
19:10	75.6	75.6	77.0	73	66.3	0	0	---	0.00	30.055 
19:15	75.3	75.3	76.7	73	66.0	0	0	---	0.00	30.056 
19:20	75.3	75.3	76.6	74	66.4	0	0	---	0.00	30.056 
19:25	75.1	75.1	76.2	76	67.0	0	0	---	0.00	30.057 
19:30	74.9	74.9	74.9	76	66.8	0	0	---	0.00	30.057 
19:35	74.7	74.7	74.7	77	67.0	0	0	---	0.00	30.056 
19:40	74.6	74.6	74.6	77	66.9	0	0	---	0.00	30.055 
19:45	74.4	74.4	74.4	77	66.7	0	0	---	0.00	30.057 
19:50	74.0	74.0	74.0	78	66.7	0	0	---	0.00	30.058 
19:55	73.9	73.9	73.9	78	66.6	0	0	---	0.00	30.058 
20:00	73.7	73.7	73.7	78	66.4	0	0	---	0.00	30.058 
20:05	73.5	73.5	73.5	78	66.2	0	0	---	0.00	30.054 
20:10	73.3	73.3	73.3	79	66.4	0	0	---	0.00	30.054 
20:15	73.2	73.2	73.2	79	66.3	0	0	---	0.00	30.054 
20:20	73.2	73.2	73.2	79	66.3	0	0	---	0.00	30.055 
20:25	73.0	73.0	73.0	79	66.1	0	0	---	0.00	30.059 
20:30	73.0	73.0	73.0	79	66.1	0	0	---	0.00	30.059 
20:35	73.0	73.0	73.0	80	66.5	0	0	---	0.00	30.060 
20:40	72.8	72.8	72.8	80	66.3	0	0	---	0.00	30.061 
20:45	72.8	72.8	72.8	80	66.3	0	0	---	0.00	30.063 
20:50	72.8	72.8	72.8	79	65.9	0	1	248	0.00	30.063 
20:55	73.0	73.0	73.0	79	66.1	0	0	---	0.00	30.064 
21:00	72.8	72.8	72.8	80	66.3	0	0	---	0.00	30.064 
21:05	72.8	72.8	72.8	80	66.3	0	0	---	0.00	30.057 
21:10	72.7	72.7	72.7	80	66.2	0	0	---	0.00	30.058 
21:15	72.5	72.5	72.5	80	66.0	0	0	---	0.00	30.060 
21:20	72.5	72.5	72.5	80	66.0	0	0	---	0.00	30.061 
21:25	72.5	72.5	72.5	80	66.0	0	0	---	0.00	30.061 
21:30	72.3	72.3	72.3	81	66.1	0	0	---	0.00	30.060 
21:35	72.0	72.0	72.0	81	65.8	0	0	---	0.00	30.060 
21:40	71.8	71.8	71.8	81	65.6	0	0	---	0.00	30.062 
21:45	71.6	71.6	71.6	81	65.4	0	0	---	0.00	30.062 
21:50	71.5	71.5	71.5	82	65.7	0	0	---	0.00	30.062 
21:55	71.6	71.6	71.6	82	65.8	0	0	---	0.00	30.063 
22:00	71.8	71.8	71.8	81	65.6	0	0	---	0.00	30.063 
22:05	72.0	72.0	72.0	81	65.8	0	0	---	0.00	30.060 
22:10	72.0	72.0	72.0	81	65.8	0	0	---	0.00	30.059 
22:15	72.1	72.1	72.1	81	65.9	0	1	248	0.00	30.060 
22:20	72.3	72.3	72.3	81	66.1	0	1	248	0.00	30.059 
22:25	72.3	72.3	72.3	80	65.8	0	0	---	0.00	30.060 
22:30	72.3	72.3	72.3	80	65.8	0	0	---	0.00	30.061 
22:35	72.5	72.5	72.5	80	66.0	0	0	---	0.00	30.061 
22:40	72.5	72.5	72.5	80	66.0	0	0	---	0.00	30.063 
22:45	72.5	72.5	72.5	80	66.0	0	0	---	0.00	30.063 
22:50	72.3	72.3	72.3	81	66.1	0	0	---	0.00	30.064 
22:55	72.3	72.3	72.3	81	66.1	0	0	---	0.00	30.061 
23:00	72.3	72.3	72.3	81	66.1	0	0	---	0.00	30.061 
23:05	72.1	72.1	72.1	81	65.9	0	1	248	0.00	30.059 
23:10	72.1	72.1	72.1	81	65.9	0	1	248	0.00	30.059 
23:15	72.3	72.3	72.3	81	66.1	0	1	248	0.00	30.057 
23:20	72.3	72.3	72.3	81	66.1	0	0	---	0.00	30.057 
23:25	72.3	72.3	72.3	81	66.1	0	1	248	0.00	30.058 
23:30	72.3	72.3	72.3	81	66.1	0	0	---	0.00	30.058 
23:35	72.1	72.1	72.1	81	65.9	0	0	---	0.00	30.058 
23:40	72.0	72.0	72.0	82	66.2	0	0	---	0.00	30.059 
23:45	71.6	71.6	71.6	82	65.8	0	0	---	0.00	30.060 
23:50	71.5	71.5	71.5	83	66.1	0	0	---	0.00	30.063 
23:55	71.3	71.3	71.3	84	66.2	0	0	---	0.00	30.066 

CoCoRaHS
IN-AL-39
A2 Web Hosting
Creative Commons License
GoDaddy
Look for:

loaded 2017-12-13 09:42:41 • last modified 2010-11-18 10:43:29
Privacy PolicyDisclaimer
• wx.awcolley.com is powered by PmWiki v.2002016 •
• all content (unless otherwise noted) © 2017 A W Colley